createdAt,value
2023-03-24T00:00:33.686Z,14.42
2023-03-24T00:01:47.671Z,14.41
2023-03-24T00:03:02.947Z,14.40
2023-03-24T00:04:15.506Z,14.38
2023-03-24T00:05:38.304Z,14.39
2023-03-24T00:07:01.640Z,14.38
2023-03-24T00:08:24.153Z,14.36
2023-03-24T00:09:47.177Z,14.35
2023-03-24T00:11:12.509Z,14.34
2023-03-24T00:12:38.334Z,14.33
2023-03-24T00:14:00.894Z,14.34
2023-03-24T00:15:23.964Z,14.32
2023-03-24T00:16:46.636Z,14.31
2023-03-24T00:18:10.648Z,14.32
2023-03-24T00:19:38.261Z,14.31
2023-03-24T00:21:00.365Z,14.30
2023-03-24T00:22:23.107Z,14.30
2023-03-24T00:23:47.682Z,14.30
2023-03-24T00:25:11.581Z,14.31
2023-03-24T00:26:34.778Z,14.29
2023-03-24T00:27:58.160Z,14.28
2023-03-24T00:29:21.115Z,14.30
2023-03-24T00:30:42.893Z,14.28
2023-03-24T00:32:05.961Z,14.29
2023-03-24T00:33:31.617Z,14.29
2023-03-24T00:34:54.397Z,14.29
2023-03-24T00:36:17.035Z,14.31
2023-03-24T00:37:41.655Z,14.29
2023-03-24T00:39:05.193Z,14.30
2023-03-24T00:40:29.214Z,14.30
2023-03-24T00:41:51.603Z,14.31
2023-03-24T00:43:14.389Z,14.30
2023-03-24T00:44:37.854Z,14.32
2023-03-24T00:46:01.794Z,14.31
2023-03-24T00:47:26.078Z,14.32
2023-03-24T00:48:53.833Z,14.31
2023-03-24T00:50:20.396Z,14.31
2023-03-24T00:51:45.540Z,14.30
2023-03-24T00:53:10.012Z,14.32
2023-03-24T00:54:32.047Z,14.32
2023-03-24T00:55:54.983Z,14.32
2023-03-24T00:57:21.967Z,14.33
2023-03-24T00:58:44.553Z,14.33
2023-03-24T01:00:14.362Z,14.33
2023-03-24T01:01:38.750Z,14.34
2023-03-24T01:03:03.241Z,14.34
2023-03-24T01:04:26.458Z,14.34
2023-03-24T01:05:49.708Z,14.35
2023-03-24T01:07:11.275Z,14.34
2023-03-24T01:08:33.772Z,14.33
2023-03-24T01:09:57.525Z,14.31
2023-03-24T01:11:20.961Z,14.28
2023-03-24T01:12:42.902Z,14.28
2023-03-24T01:14:05.853Z,14.27
2023-03-24T01:15:29.916Z,14.27
2023-03-24T01:16:53.090Z,14.25
2023-03-24T01:18:16.048Z,14.24
2023-03-24T01:19:40.757Z,14.23
2023-03-24T01:21:03.388Z,14.21
2023-03-24T01:22:31.360Z,14.21
2023-03-24T01:23:54.178Z,14.22
2023-03-24T01:25:18.433Z,14.21
2023-03-24T01:26:40.981Z,14.21
2023-03-24T01:28:03.075Z,14.21
2023-03-24T01:29:25.542Z,14.22
2023-03-24T01:30:48.128Z,14.21
2023-03-24T01:32:09.880Z,14.19
2023-03-24T01:33:32.368Z,14.20
2023-03-24T01:34:55.391Z,14.21
2023-03-24T01:36:18.062Z,14.20
2023-03-24T01:37:41.173Z,14.20
2023-03-24T01:39:05.111Z,14.21
2023-03-24T01:40:30.231Z,14.21
2023-03-24T01:41:52.814Z,14.22
2023-03-24T01:43:20.058Z,14.24
2023-03-24T01:44:43.326Z,14.24
2023-03-24T01:46:15.166Z,14.26
2023-03-24T01:47:37.764Z,14.26
2023-03-24T01:49:02.452Z,14.27
2023-03-24T01:50:26.555Z,14.28
2023-03-24T01:51:53.092Z,14.29
2023-03-24T01:53:15.423Z,14.28
2023-03-24T01:54:41.009Z,14.29
2023-03-24T01:56:05.081Z,14.30
2023-03-24T01:57:30.999Z,14.28
2023-03-24T01:58:57.447Z,14.29
2023-03-24T02:00:21.814Z,14.29
2023-03-24T02:01:45.650Z,14.29
2023-03-24T02:03:09.935Z,14.30
2023-03-24T02:04:34.544Z,14.30
2023-03-24T02:05:58.655Z,14.30
2023-03-24T02:07:28.187Z,14.30
2023-03-24T02:08:55.200Z,14.30
2023-03-24T02:10:18.668Z,14.30
2023-03-24T02:11:42.202Z,14.30
2023-03-24T02:13:04.817Z,14.31
2023-03-24T02:14:26.475Z,14.30
2023-03-24T02:16:00.765Z,14.31
2023-03-24T02:17:40.939Z,14.30
2023-03-24T02:19:39.662Z,14.28
2023-03-24T02:21:42.624Z,14.28
2023-03-24T02:24:01.051Z,14.28
2023-03-24T02:26:02.234Z,14.26
2023-03-24T02:27:45.340Z,14.26
2023-03-24T02:29:32.561Z,14.26
2023-03-24T02:31:13.688Z,14.27
2023-03-24T02:33:01.375Z,14.27
2023-03-24T02:34:47.003Z,14.26
2023-03-24T02:36:36.796Z,14.27
2023-03-24T02:38:28.406Z,14.28
2023-03-24T02:40:01.961Z,14.29
2023-03-24T02:41:30.179Z,14.30
2023-03-24T02:43:08.616Z,14.32
2023-03-24T02:44:37.654Z,14.34
2023-03-24T02:46:14.044Z,14.34
2023-03-24T02:47:43.993Z,14.37
2023-03-24T02:49:17.785Z,14.38
2023-03-24T02:50:47.619Z,14.40
2023-03-24T02:52:21.641Z,14.42
2023-03-24T02:53:55.969Z,14.44
2023-03-24T02:55:25.317Z,14.44
2023-03-24T02:56:53.462Z,14.45
2023-03-24T02:58:19.446Z,14.47
2023-03-24T02:59:45.312Z,14.48
2023-03-24T03:01:13.795Z,14.49
2023-03-24T03:02:42.493Z,14.50
2023-03-24T03:04:09.904Z,14.51
2023-03-24T03:05:37.424Z,14.54
2023-03-24T03:07:09.501Z,14.54
2023-03-24T03:08:33.891Z,14.54
2023-03-24T03:10:00.954Z,14.55
2023-03-24T03:11:23.998Z,14.56
2023-03-24T03:12:51.360Z,14.57
2023-03-24T03:14:19.323Z,14.59
2023-03-24T03:15:45.293Z,14.62
2023-03-24T03:17:12.488Z,14.65
2023-03-24T03:18:40.751Z,14.67
2023-03-24T03:20:08.197Z,14.69
2023-03-24T03:21:38.978Z,14.73
2023-03-24T03:23:08.036Z,14.76
2023-03-24T03:24:35.873Z,14.77
2023-03-24T03:26:06.157Z,14.80
2023-03-24T03:27:32.251Z,14.82
2023-03-24T03:28:57.786Z,14.83
2023-03-24T03:30:25.959Z,14.85
2023-03-24T03:31:53.107Z,14.86
2023-03-24T03:33:24.553Z,14.87
2023-03-24T03:34:52.048Z,14.89
2023-03-24T03:36:18.329Z,14.90
2023-03-24T03:37:48.641Z,14.91
2023-03-24T03:39:15.999Z,14.91
2023-03-24T03:40:42.961Z,14.93
2023-03-24T03:42:07.275Z,14.94
2023-03-24T03:43:31.399Z,14.95
2023-03-24T03:44:54.361Z,14.96
2023-03-24T03:46:18.954Z,14.97
2023-03-24T03:47:41.048Z,14.97
2023-03-24T03:49:04.268Z,14.98
2023-03-24T03:50:25.861Z,14.98
2023-03-24T03:51:48.946Z,14.98
2023-03-24T03:53:11.396Z,14.99
2023-03-24T03:54:35.384Z,14.99
2023-03-24T03:55:57.927Z,15.00
2023-03-24T03:57:21.330Z,14.99
2023-03-24T03:58:46.638Z,15.01
2023-03-24T04:00:15.615Z,15.01
2023-03-24T04:01:37.752Z,15.01
2023-03-24T04:03:24.944Z,15.01
2023-03-24T04:05:06.741Z,15.00
2023-03-24T04:06:36.272Z,14.99
2023-03-24T04:08:09.379Z,14.98
2023-03-24T04:09:42.560Z,14.98
2023-03-24T04:11:23.878Z,14.97
2023-03-24T04:13:03.966Z,14.97
2023-03-24T04:14:56.628Z,14.95
2023-03-24T04:16:29.002Z,14.93
2023-03-24T04:18:04.456Z,14.93
2023-03-24T04:19:39.835Z,14.89
2023-03-24T04:21:12.860Z,14.86
2023-03-24T04:22:44.954Z,14.84
2023-03-24T04:24:27.263Z,14.79
2023-03-24T04:25:58.474Z,14.73
2023-03-24T04:27:28.571Z,14.64
2023-03-24T04:28:58.109Z,14.57
2023-03-24T04:30:27.738Z,14.51
2023-03-24T04:31:53.839Z,14.45
2023-03-24T04:33:22.316Z,14.42
2023-03-24T04:34:50.692Z,14.37
2023-03-24T04:36:22.262Z,14.35
2023-03-24T04:37:45.820Z,14.33
2023-03-24T04:39:09.416Z,14.32
2023-03-24T04:40:34.310Z,14.29
2023-03-24T04:41:58.531Z,14.27
2023-03-24T04:43:24.942Z,14.26
2023-03-24T04:44:51.213Z,14.25
2023-03-24T04:46:17.606Z,14.25
2023-03-24T04:47:46.194Z,14.23
2023-03-24T04:49:09.969Z,14.23
2023-03-24T04:50:36.815Z,14.21
2023-03-24T04:51:59.323Z,14.20
2023-03-24T04:53:22.028Z,14.19
2023-03-24T04:54:44.619Z,14.18
2023-03-24T04:56:29.482Z,14.17
2023-03-24T04:57:52.091Z,14.16
2023-03-24T04:59:15.211Z,14.15
2023-03-24T05:00:37.085Z,14.15
2023-03-24T05:02:01.123Z,14.14
2023-03-24T05:03:23.051Z,14.12
2023-03-24T05:04:45.725Z,14.14
2023-03-24T05:06:08.357Z,14.14
2023-03-24T05:07:31.692Z,14.13
2023-03-24T05:08:33.491Z,14.12
2023-03-24T05:09:36.114Z,14.11
2023-03-24T05:10:38.599Z,14.08
2023-03-24T05:11:41.148Z,14.06
2023-03-24T05:12:43.022Z,14.05
2023-03-24T05:13:46.798Z,14.03
2023-03-24T05:14:48.413Z,14.00
2023-03-24T05:15:50.952Z,13.99
2023-03-24T05:16:52.889Z,13.96
2023-03-24T05:17:57.266Z,13.94
2023-03-24T05:18:58.826Z,13.91
2023-03-24T05:20:01.467Z,13.87
2023-03-24T05:21:03.090Z,13.83
2023-03-24T05:22:05.633Z,13.81
2023-03-24T05:23:07.515Z,13.76
2023-03-24T05:24:10.440Z,13.73
2023-03-24T05:25:22.282Z,13.68
2023-03-24T05:26:28.002Z,13.66
2023-03-24T05:27:30.426Z,13.61
2023-03-24T05:28:38.448Z,13.57
2023-03-24T05:29:40.159Z,13.53
2023-03-24T05:30:42.695Z,13.51
2023-03-24T05:31:45.057Z,13.48
2023-03-24T05:32:47.628Z,13.46
2023-03-24T05:33:50.567Z,13.42
2023-03-24T05:34:53.205Z,13.39
2023-03-24T05:35:54.867Z,13.37
2023-03-24T05:36:57.740Z,13.34
2023-03-24T05:37:59.295Z,13.31
2023-03-24T05:39:01.828Z,13.30
2023-03-24T05:40:04.023Z,13.27
2023-03-24T05:41:07.145Z,13.25
2023-03-24T05:42:18.795Z,13.23
2023-03-24T05:43:21.314Z,13.20
2023-03-24T05:44:23.047Z,13.19
2023-03-24T05:45:25.845Z,13.16
2023-03-24T05:46:28.001Z,13.14
2023-03-24T05:47:30.534Z,13.14
2023-03-24T05:48:33.183Z,13.11
2023-03-24T05:49:36.574Z,13.10
2023-03-24T05:50:39.078Z,13.08
2023-03-24T05:51:41.061Z,13.06
2023-03-24T05:52:43.718Z,13.05
2023-03-24T05:53:45.614Z,13.03
2023-03-24T05:54:51.878Z,13.02
2023-03-24T05:55:53.690Z,13.00
2023-03-24T05:56:58.033Z,12.99
2023-03-24T05:58:01.938Z,12.97
2023-03-24T05:59:14.470Z,12.95
2023-03-24T06:00:17.778Z,12.94
2023-03-24T06:01:23.090Z,12.93
2023-03-24T06:02:25.376Z,12.92
2023-03-24T06:03:34.690Z,12.92
2023-03-24T06:04:38.252Z,12.92
2023-03-24T06:05:40.941Z,12.90
2023-03-24T06:06:45.557Z,12.91
2023-03-24T06:08:01.190Z,12.92
2023-03-24T06:09:04.855Z,12.92
2023-03-24T06:10:11.214Z,12.92
2023-03-24T06:11:13.080Z,12.93
2023-03-24T06:12:16.610Z,12.95
2023-03-24T06:13:29.161Z,12.95
2023-03-24T06:14:33.899Z,12.95
2023-03-24T06:15:39.330Z,12.93
2023-03-24T06:19:06.774Z,12.91
2023-03-24T06:20:15.547Z,12.88
2023-03-24T06:21:31.941Z,12.86
2023-03-24T06:22:36.202Z,12.83
2023-03-24T06:23:48.865Z,12.81
2023-03-24T06:24:58.649Z,12.81
2023-03-24T06:26:01.358Z,12.80
2023-03-24T06:27:03.976Z,12.80
2023-03-24T06:28:05.835Z,12.80
2023-03-24T06:29:08.413Z,12.79
2023-03-24T06:30:10.930Z,12.79
2023-03-24T06:31:18.480Z,12.79
2023-03-24T06:32:20.450Z,12.77
2023-03-24T06:33:25.686Z,12.77
2023-03-24T06:34:29.170Z,12.79
2023-03-24T06:35:33.391Z,12.80
2023-03-24T06:36:45.002Z,12.78
2023-03-24T06:37:47.692Z,12.76
2023-03-24T06:38:50.992Z,12.74
2023-03-24T06:39:54.563Z,12.73
2023-03-24T06:41:01.052Z,12.71
2023-03-24T06:42:03.281Z,12.69
2023-03-24T06:43:06.259Z,12.68
2023-03-24T06:44:07.877Z,12.66
2023-03-24T06:45:11.624Z,12.67
2023-03-24T06:46:13.198Z,12.66
2023-03-24T06:47:16.429Z,12.66
2023-03-24T06:48:18.017Z,12.65
2023-03-24T06:49:25.888Z,12.63
2023-03-24T06:50:32.810Z,12.61
2023-03-24T06:51:46.837Z,12.60
2023-03-24T06:52:55.277Z,12.59
2023-03-24T06:53:57.987Z,12.59
2023-03-24T06:55:10.902Z,12.61
2023-03-24T06:56:16.560Z,12.62
2023-03-24T06:57:28.793Z,12.61
2023-03-24T06:58:32.827Z,12.63
2023-03-24T06:59:36.444Z,12.64
2023-03-24T07:00:39.384Z,12.63
2023-03-24T07:01:44.014Z,12.64
2023-03-24T07:02:57.065Z,12.67
2023-03-24T07:03:58.924Z,12.67
2023-03-24T07:05:05.951Z,12.67
2023-03-24T07:06:07.512Z,12.69
2023-03-24T07:08:37.572Z,12.71
2023-03-24T07:09:40.981Z,12.73
2023-03-24T07:10:44.737Z,12.73
2023-03-24T07:11:46.487Z,12.74
2023-03-24T07:12:49.318Z,12.75
2023-03-24T07:13:59.660Z,12.77
2023-03-24T07:15:04.159Z,12.79
2023-03-24T07:16:07.591Z,12.83
2023-03-24T07:17:10.104Z,12.86
2023-03-24T07:18:13.472Z,12.92
2023-03-24T07:19:16.282Z,12.98
2023-03-24T07:20:27.838Z,13.02
2023-03-24T07:21:35.084Z,13.07
2023-03-24T07:22:39.235Z,13.10
2023-03-24T07:23:51.782Z,13.13
2023-03-24T07:24:54.327Z,13.17
2023-03-24T07:25:57.083Z,13.20
2023-03-24T07:27:09.681Z,13.24
2023-03-24T07:28:11.418Z,13.26
2023-03-24T07:29:14.020Z,13.27
2023-03-24T07:30:15.973Z,13.27
2023-03-24T07:31:18.593Z,13.27
2023-03-24T07:32:20.385Z,13.28
2023-03-24T07:33:24.223Z,13.29
2023-03-24T07:34:26.017Z,13.30
2023-03-24T07:35:28.641Z,13.32
2023-03-24T07:36:30.304Z,13.33
2023-03-24T07:37:32.821Z,13.36
2023-03-24T07:38:35.825Z,13.38
2023-03-24T07:39:48.391Z,13.39
2023-03-24T07:40:50.006Z,13.40
2023-03-24T07:41:52.718Z,13.41
2023-03-24T07:43:09.335Z,13.44
2023-03-24T07:44:11.154Z,13.45
2023-03-24T07:45:14.855Z,13.45
2023-03-24T07:46:18.149Z,13.45
2023-03-24T07:47:20.847Z,13.46
2023-03-24T07:48:22.427Z,13.48
2023-03-24T07:49:25.905Z,13.49
2023-03-24T07:50:28.219Z,13.51
2023-03-24T07:51:42.931Z,13.52
2023-03-24T07:52:48.605Z,13.56
2023-03-24T07:53:52.786Z,13.55
2023-03-24T07:54:55.293Z,13.57
2023-03-24T07:55:57.093Z,13.59
2023-03-24T07:56:59.616Z,13.62
2023-03-24T07:58:03.164Z,13.64
2023-03-24T07:59:07.657Z,13.65
2023-03-24T08:00:15.179Z,13.65
2023-03-24T08:01:36.842Z,13.65
2023-03-24T08:02:38.564Z,13.67
2023-03-24T08:03:42.485Z,13.67
2023-03-24T08:04:45.005Z,13.69
2023-03-24T08:05:47.990Z,13.72
2023-03-24T08:06:49.703Z,13.76
2023-03-24T08:07:54.227Z,13.80
2023-03-24T08:08:57.479Z,13.87
2023-03-24T08:10:00.160Z,13.94
2023-03-24T08:11:02.991Z,14.02
2023-03-24T08:12:17.439Z,14.08
2023-03-24T08:13:22.387Z,14.15
2023-03-24T08:14:26.302Z,14.21
2023-03-24T08:15:29.991Z,14.27
2023-03-24T08:16:32.555Z,14.33
2023-03-24T08:17:34.814Z,14.39
2023-03-24T08:18:37.544Z,14.41
2023-03-24T08:20:00.161Z,14.44
2023-03-24T08:21:14.157Z,14.48
2023-03-24T08:22:17.092Z,14.53
2023-03-24T08:23:18.946Z,14.57
2023-03-24T08:24:23.086Z,14.59
2023-03-24T08:25:26.006Z,14.60
2023-03-24T08:26:29.118Z,14.59
2023-03-24T08:27:30.686Z,14.58
2023-03-24T08:28:33.146Z,14.53
2023-03-24T08:29:34.747Z,14.51
2023-03-24T08:30:43.416Z,14.50
2023-03-24T08:31:45.322Z,14.47
2023-03-24T08:33:00.332Z,14.42
2023-03-24T08:34:02.079Z,14.36
2023-03-24T08:35:05.145Z,14.33
2023-03-24T08:36:08.157Z,14.31
2023-03-24T08:37:11.800Z,14.30
2023-03-24T08:38:18.601Z,14.27
2023-03-24T08:39:24.228Z,14.25
2023-03-24T08:40:27.473Z,14.24
2023-03-24T08:41:34.824Z,14.21
2023-03-24T08:42:36.884Z,14.23
2023-03-24T08:43:39.423Z,14.23
2023-03-24T08:44:41.736Z,14.20
2023-03-24T08:45:44.548Z,14.19
2023-03-24T08:46:46.177Z,14.18
2023-03-24T08:47:50.425Z,14.17
2023-03-24T08:49:03.411Z,14.17
2023-03-24T08:50:16.068Z,14.13
2023-03-24T08:51:18.135Z,14.12
2023-03-24T08:52:20.686Z,14.12
2023-03-24T08:53:23.695Z,14.10
2023-03-24T08:54:26.582Z,14.12
2023-03-24T08:55:29.578Z,14.14
2023-03-24T08:56:32.475Z,14.14
2023-03-24T08:57:34.478Z,14.14
2023-03-24T08:58:37.562Z,14.14
2023-03-24T08:59:51.324Z,14.15
2023-03-24T09:00:55.422Z,14.17
2023-03-24T09:01:57.057Z,14.20
2023-03-24T09:03:00.972Z,14.25
2023-03-24T09:04:03.940Z,14.29
2023-03-24T09:05:06.956Z,14.34
2023-03-24T09:06:10.032Z,14.35
2023-03-24T09:07:22.909Z,14.37
2023-03-24T09:08:24.931Z,14.37
2023-03-24T09:09:39.491Z,14.40
2023-03-24T09:10:43.310Z,14.42
2023-03-24T09:11:55.907Z,14.43
2023-03-24T09:12:57.489Z,14.43
2023-03-24T09:13:59.997Z,14.44
2023-03-24T09:15:02.598Z,14.44
2023-03-24T09:16:05.543Z,14.45
2023-03-24T09:17:07.555Z,14.50
2023-03-24T09:18:10.368Z,14.54
2023-03-24T09:19:12.900Z,14.59
2023-03-24T09:20:15.700Z,14.62
2023-03-24T09:21:18.351Z,14.64
2023-03-24T09:22:21.084Z,14.69
2023-03-24T09:23:22.760Z,14.74
2023-03-24T09:24:25.478Z,14.77
2023-03-24T09:25:28.365Z,14.78
2023-03-24T09:26:41.420Z,14.77
2023-03-24T09:27:43.269Z,14.80
2023-03-24T09:28:45.837Z,14.85
2023-03-24T09:29:47.986Z,14.92
2023-03-24T09:31:02.293Z,14.99
2023-03-24T09:32:03.882Z,15.06
2023-03-24T09:33:06.590Z,15.09
2023-03-24T09:34:19.158Z,15.12
2023-03-24T09:35:24.275Z,15.17
2023-03-24T09:36:36.857Z,15.21
2023-03-24T09:37:39.146Z,15.26
2023-03-24T09:38:41.756Z,15.31
2023-03-24T09:39:43.409Z,15.38
2023-03-24T09:40:52.130Z,15.41
2023-03-24T09:41:54.965Z,15.43
2023-03-24T09:43:03.839Z,15.42
2023-03-24T09:44:21.151Z,15.39
2023-03-24T09:45:27.270Z,15.37
2023-03-24T09:46:34.855Z,15.39
2023-03-24T09:47:41.938Z,15.44
2023-03-24T09:48:51.796Z,15.50
2023-03-24T09:49:56.743Z,15.57
2023-03-24T09:51:03.725Z,15.62
2023-03-24T09:52:10.399Z,15.64
2023-03-24T09:53:24.813Z,15.67
2023-03-24T09:54:32.027Z,15.72
2023-03-24T09:55:37.708Z,15.76
2023-03-24T09:56:52.617Z,15.80
2023-03-24T09:57:59.036Z,15.86
2023-03-24T09:59:05.360Z,15.90
2023-03-24T10:00:18.476Z,15.94
2023-03-24T10:01:27.240Z,15.96
2023-03-24T10:02:31.452Z,16.00
2023-03-24T10:03:33.249Z,16.02
2023-03-24T10:04:46.382Z,16.03
2023-03-24T10:05:52.893Z,16.03
2023-03-24T10:07:01.422Z,16.02
2023-03-24T10:08:18.214Z,16.02
2023-03-24T10:09:32.855Z,15.98
2023-03-24T10:10:40.843Z,15.96
2023-03-24T10:11:49.113Z,15.92
2023-03-24T10:12:58.306Z,15.91
2023-03-24T10:14:14.996Z,15.95
2023-03-24T10:15:37.135Z,16.03
2023-03-24T10:16:49.454Z,16.09
2023-03-24T10:17:57.399Z,16.16
2023-03-24T10:19:05.495Z,16.26
2023-03-24T10:20:21.161Z,16.34
2023-03-24T10:21:27.773Z,16.41
2023-03-24T10:22:37.511Z,16.47
2023-03-24T10:23:46.788Z,16.54
2023-03-24T10:24:55.111Z,16.63
2023-03-24T10:26:04.667Z,16.72
2023-03-24T10:27:16.327Z,16.79
2023-03-24T10:28:24.567Z,16.84
2023-03-24T10:29:30.024Z,16.88
2023-03-24T10:30:35.178Z,16.90
2023-03-24T10:31:38.753Z,16.91
2023-03-24T10:32:43.782Z,16.92
2023-03-24T10:33:46.359Z,16.89
2023-03-24T10:34:52.301Z,16.82
2023-03-24T10:36:00.016Z,16.74
2023-03-24T10:37:05.122Z,16.69
2023-03-24T10:38:17.551Z,16.62
2023-03-24T10:39:26.092Z,16.60
2023-03-24T10:40:37.073Z,16.62
2023-03-24T10:41:42.163Z,16.65
2023-03-24T10:42:46.627Z,16.70
2023-03-24T10:43:52.829Z,16.74
2023-03-24T10:44:54.538Z,16.71
2023-03-24T10:45:59.125Z,16.69
2023-03-24T10:47:15.014Z,16.64
2023-03-24T10:48:43.077Z,16.64
2023-03-24T10:49:53.932Z,16.62
2023-03-24T10:51:00.211Z,16.59
2023-03-24T10:52:09.637Z,16.54
2023-03-24T10:53:18.589Z,16.47
2023-03-24T10:54:23.491Z,16.45
2023-03-24T10:55:31.558Z,16.44
2023-03-24T10:56:40.002Z,16.44
2023-03-24T10:57:45.295Z,16.46
2023-03-24T10:58:49.013Z,16.47
2023-03-24T10:59:55.939Z,16.50
2023-03-24T11:01:00.708Z,16.53
2023-03-24T11:02:16.194Z,16.58
2023-03-24T11:03:24.357Z,16.59
2023-03-24T11:04:27.318Z,16.62
2023-03-24T11:05:31.621Z,16.67
2023-03-24T11:06:39.821Z,16.72
2023-03-24T11:07:46.307Z,16.78
2023-03-24T11:08:49.012Z,16.84
2023-03-24T11:10:01.118Z,16.89
2023-03-24T11:13:32.218Z,16.83
2023-03-24T11:14:45.735Z,16.78
2023-03-24T11:15:56.576Z,16.75
2023-03-24T11:17:11.383Z,16.73
2023-03-24T11:18:16.667Z,16.69
2023-03-24T11:19:22.487Z,16.67
2023-03-24T11:20:30.915Z,16.67
2023-03-24T11:21:36.236Z,16.67
2023-03-24T11:23:01.032Z,16.60
2023-03-24T11:24:11.377Z,16.58
2023-03-24T11:25:26.557Z,16.56
2023-03-24T11:26:36.733Z,16.57
2023-03-24T11:27:42.417Z,16.60
2023-03-24T11:28:48.000Z,16.65
2023-03-24T11:29:54.982Z,16.72
2023-03-24T11:30:56.837Z,16.79
2023-03-24T11:32:01.961Z,16.85
2023-03-24T11:33:04.785Z,16.92
2023-03-24T11:34:20.653Z,17.02
2023-03-24T11:35:39.095Z,17.10
2023-03-24T11:36:48.915Z,17.16
2023-03-24T11:37:51.618Z,17.18
2023-03-24T11:38:59.853Z,17.19
2023-03-24T11:40:22.155Z,17.17
2023-03-24T11:41:43.006Z,17.15
2023-03-24T11:42:47.572Z,17.13
2023-03-24T11:44:16.427Z,17.09
2023-03-24T11:45:27.886Z,17.10
2023-03-24T11:46:29.540Z,17.12
2023-03-24T11:47:42.470Z,17.15
2023-03-24T11:48:51.861Z,17.18
2023-03-24T11:50:02.163Z,17.19
2023-03-24T11:51:24.225Z,17.21
2023-03-24T11:52:31.342Z,17.23
2023-03-24T11:53:41.825Z,17.27
2023-03-24T11:54:43.753Z,17.30
2023-03-24T11:55:53.653Z,17.32
2023-03-24T11:56:58.892Z,17.30
2023-03-24T11:58:04.622Z,17.27
2023-03-24T11:59:15.598Z,17.22
2023-03-24T12:00:23.660Z,17.17
2023-03-24T12:01:37.840Z,17.15
2023-03-24T12:02:54.449Z,17.17
2023-03-24T12:04:20.184Z,17.17
2023-03-24T12:05:32.205Z,17.16
2023-03-24T12:06:56.950Z,17.13
2023-03-24T12:08:18.991Z,17.16
2023-03-24T12:09:32.736Z,17.18
2023-03-24T12:10:45.398Z,17.16
2023-03-24T12:12:08.292Z,17.15
2023-03-24T12:13:25.989Z,17.18
2023-03-24T12:14:49.379Z,17.23
2023-03-24T12:16:15.953Z,17.29
2023-03-24T12:17:23.988Z,17.32
2023-03-24T12:18:48.780Z,17.30
2023-03-24T12:20:22.440Z,17.34
2023-03-24T12:21:53.394Z,17.36
2023-03-24T12:23:01.156Z,17.39
2023-03-24T12:24:17.177Z,17.38
2023-03-24T12:25:29.038Z,17.35
2023-03-24T12:26:35.640Z,17.33
2023-03-24T12:27:46.952Z,17.28
2023-03-24T12:29:18.896Z,17.19
2023-03-24T12:30:30.711Z,17.13
2023-03-24T12:32:00.626Z,17.11
2023-03-24T12:33:31.303Z,17.08
2023-03-24T12:34:54.604Z,16.98
2023-03-24T12:36:21.025Z,16.92
2023-03-24T12:37:30.937Z,16.90
2023-03-24T12:38:49.733Z,16.92
2023-03-24T12:40:03.069Z,16.89
2023-03-24T12:41:25.219Z,16.88
2023-03-24T12:42:36.395Z,16.87
2023-03-24T12:43:47.442Z,16.84
2023-03-24T12:45:26.125Z,16.81
2023-03-24T12:46:51.439Z,16.80
2023-03-24T12:48:28.331Z,16.81
2023-03-24T12:49:52.856Z,16.82
2023-03-24T12:51:10.609Z,16.84
